Time;durP1;ratioP1;P1;durP2;ratioP2;P2;SDS_P1;SDS_P2;PMS_P1;PMS_P2;Temp;Humidity;BMP_temperature;BMP_pressure;BME280_temperature;BME280_humidity;BME280_pressure;Samples;Min_cycle;Max_cycle;Signal;HPM_P1;HPM_P2
2021/08/09 00:00:38;;;;;;;;;;;;;;;25.36;63.28;100418.80;442626;118;921565;-72
2021/08/09 00:01:42;;;;;;;;;;;;;;;25.34;63.35;100419.94;449205;116;921466;-72
2021/08/09 00:02:45;;;;;;;;;;;;;;;25.34;63.35;100414.36;449103;117;921519;-72
2021/08/09 00:03:49;;;;;;;;;;;;;;;25.32;63.39;100425.00;449739;118;921392;-72
2021/08/09 00:04:52;;;;;;;;;;;;;;;25.30;63.48;100421.72;449036;116;921531;-72
2021/08/09 00:05:55;;;;;;;;;;;;;;;25.30;63.54;100418.11;448240;116;921692;-72
2021/08/09 00:07:00;;;;;;;;;;;;;;;25.29;63.54;100419.23;449727;118;921463;-72
2021/08/09 00:08:03;;;;;;;;;;;;;;;25.29;63.57;100424.83;450428;118;921505;-72
2021/08/09 00:09:07;;;;;;;;;;;;;;;25.29;63.55;100416.45;446788;117;921398;-72
2021/08/09 00:10:10;;;;;;;;;;;;;;;25.29;63.55;100419.23;448663;116;921495;-72
2021/08/09 00:11:13;;;;;;;;;;;;;;;25.28;63.55;100415.63;448299;118;921606;-71
2021/08/09 00:12:16;;;;;;;;;;;;;;;25.28;63.59;100415.63;447557;118;921454;-72
2021/08/09 00:13:20;;;;;;;;;;;;;;;25.28;63.60;100415.63;447306;116;921577;-72
2021/08/09 00:14:23;;;;;;;;;;;;;;;25.28;63.62;100418.41;448396;117;921568;-72
2021/08/09 00:15:26;;;;;;;;;;;;;;;25.28;63.63;100414.80;448975;118;921434;-72
2021/08/09 00:16:30;;;;;;;;;;;;;;;25.28;63.63;100410.04;448283;118;925902;-72
2021/08/09 00:17:34;;;;;;;;;;;;;;;25.28;63.60;100414.80;448544;117;924091;-72
2021/08/09 00:18:41;;;;;;;;;;;;;;;25.28;63.56;100414.80;449049;118;922693;-71
2021/08/09 00:19:43;;;;;;;;;;;;;;;25.27;63.52;100413.97;448832;116;922651;-71
2021/08/09 00:20:47;;;;;;;;;;;;;;;25.27;63.48;100413.14;449286;118;922682;-71
2021/08/09 00:21:51;;;;;;;;;;;;;;;25.27;63.50;100410.35;449075;116;921512;-70
2021/08/09 00:22:55;;;;;;;;;;;;;;;25.26;63.48;100405.91;450166;118;922652;-71
2021/08/09 00:23:59;;;;;;;;;;;;;;;25.26;63.42;100405.91;449594;118;923134;-72
2021/08/09 00:25:02;;;;;;;;;;;;;;;25.25;63.37;100405.08;448560;116;922789;-72
2021/08/09 00:26:06;;;;;;;;;;;;;;;25.25;63.37;100407.07;448537;118;922741;-71
2021/08/09 00:27:10;;;;;;;;;;;;;;;25.24;63.31;100400.66;448243;116;922624;-70
2021/08/09 00:28:14;;;;;;;;;;;;;;;25.23;63.29;100398.18;450119;118;922743;-71
2021/08/09 00:29:18;;;;;;;;;;;;;;;25.22;63.25;100402.11;450385;118;923288;-71
2021/08/09 00:30:22;;;;;;;;;;;;;;;25.21;63.19;100395.70;450360;116;922651;-70
2021/08/09 00:31:26;;;;;;;;;;;;;;;25.20;63.16;100396.83;448637;118;923114;-70
2021/08/09 00:32:30;;;;;;;;;;;;;;;25.18;63.14;100399.13;449130;118;922993;-71
2021/08/09 00:33:33;;;;;;;;;;;;;;;25.15;63.16;100394.17;448487;116;923861;-71
2021/08/09 00:34:38;;;;;;;;;;;;;;;25.13;63.20;100404.84;447885;118;922731;-70
2021/08/09 00:35:42;;;;;;;;;;;;;;;25.12;63.20;100394.81;447615;118;922684;-71
2021/08/09 00:36:47;;;;;;;;;;;;;;;25.10;63.25;100393.47;447466;118;922648;-71
2021/08/09 00:37:51;;;;;;;;;;;;;;;25.09;63.25;100389.85;449990;116;922679;-71
2021/08/09 00:38:55;;;;;;;;;;;;;;;25.07;63.31;100394.11;448567;117;922756;-72
2021/08/09 00:39:59;;;;;;;;;;;;;;;25.05;63.32;100393.59;448451;118;922744;-72
2021/08/09 00:41:03;;;;;;;;;;;;;;;25.03;63.35;100393.90;447771;117;923737;-71
2021/08/09 00:42:07;;;;;;;;;;;;;;;25.03;63.37;100393.10;448227;118;921948;-71
2021/08/09 00:43:12;;;;;;;;;;;;;;;25.01;63.40;100392.58;448231;117;922323;-72
2021/08/09 00:44:16;;;;;;;;;;;;;;;25.00;63.37;100393.72;448173;118;922891;-71
2021/08/09 00:45:20;;;;;;;;;;;;;;;25.00;63.39;100390.92;449608;118;921461;-71
2021/08/09 00:46:24;;;;;;;;;;;;;;;24.99;63.42;100392.89;449704;118;921406;-71
2021/08/09 00:47:29;;;;;;;;;;;;;;;24.99;63.42;100392.06;449308;116;921618;-72
2021/08/09 00:48:34;;;;;;;;;;;;;;;24.98;63.48;100388.44;448699;118;921585;-72
2021/08/09 00:49:38;;;;;;;;;;;;;;;24.97;63.46;100392.40;450475;118;922689;-72
2021/08/09 00:50:43;;;;;;;;;;;;;;;24.96;63.51;100387.95;440089;121;921973;-72
2021/08/09 00:51:47;;;;;;;;;;;;;;;24.96;63.51;100392.70;451075;117;921479;-71
2021/08/09 00:52:51;;;;;;;;;;;;;;;24.94;63.46;100387.43;449177;118;921381;-72
2021/08/09 00:53:55;;;;;;;;;;;;;;;24.93;63.42;100385.78;448006;118;921567;-71
2021/08/09 00:54:59;;;;;;;;;;;;;;;24.93;63.42;100377.41;447033;117;921585;-71
2021/08/09 00:56:03;;;;;;;;;;;;;;;24.92;63.42;100384.95;447808;117;921441;-73
2021/08/09 00:57:09;;;;;;;;;;;;;;;24.91;63.43;100377.75;445377;119;921493;-72
2021/08/09 00:58:14;;;;;;;;;;;;;;;24.90;63.43;100387.25;446964;116;921656;-72
2021/08/09 00:59:18;;;;;;;;;;;;;;;24.89;63.40;100382.80;448537;116;921926;-72
2021/08/09 01:00:22;;;;;;;;;;;;;;;24.87;63.42;100382.25;448811;118;921664;-71
2021/08/09 01:01:25;;;;;;;;;;;;;;;24.85;63.46;100383.72;451526;115;922018;-71
2021/08/09 01:02:30;;;;;;;;;;;;;;;24.81;63.52;100389.08;457511;115;921534;-70
2021/08/09 01:03:36;;;;;;;;;;;;;;;24.78;63.57;100386.11;457664;115;921435;-72
2021/08/09 01:04:40;;;;;;;;;;;;;;;24.76;63.68;100382.80;457650;114;921516;-71
2021/08/09 01:05:46;;;;;;;;;;;;;;;24.74;63.76;100382.30;458432;114;921421;-72
2021/08/09 01:06:48;;;;;;;;;;;;;;;24.72;63.84;100379.83;458893;114;921466;-71
2021/08/09 01:07:54;;;;;;;;;;;;;;;24.72;63.88;100378.99;459187;114;921909;-72
2021/08/09 01:09:03;;;;;;;;;;;;;;;24.71;63.88;100383.74;459537;114;921627;-72
2021/08/09 01:10:09;;;;;;;;;;;;;;;24.70;63.89;100379.30;459311;114;922616;-71
2021/08/09 01:11:17;;;;;;;;;;;;;;;24.70;63.98;100384.08;457406;113;922485;-72
2021/08/09 01:12:25;;;;;;;;;;;;;;;24.69;64.01;100385.21;458528;114;921560;-70
2021/08/09 01:13:33;;;;;;;;;;;;;;;24.69;64.01;100383.25;460854;115;922688;-69
2021/08/09 01:14:47;;;;;;;;;;;;;;;24.69;64.04;100388.00;446028;118;923262;-71
2021/08/09 01:15:59;;;;;;;;;;;;;;;24.80;64.05;100383.84;483856;108;922661;-70
2021/08/09 01:17:05;;;;;;;;;;;;;;;24.68;64.10;100381.59;473649;111;923018;-71
2021/08/09 01:18:10;;;;;;;;;;;;;;;24.69;64.08;100386.04;471378;112;923096;-72
2021/08/09 01:19:19;;;;;;;;;;;;;;;24.68;64.09;100384.38;470276;110;922649;-72
2021/08/09 01:20:25;;;;;;;;;;;;;;;24.66;64.05;100389.44;463269;112;922850;-72
2021/08/09 01:21:30;;;;;;;;;;;;;;;24.64;64.13;100383.37;464752;114;922676;-73
2021/08/09 01:22:36;;;;;;;;;;;;;;;24.64;64.14;100390.91;463731;111;923407;-71
2021/08/09 01:23:48;;;;;;;;;;;;;;;24.61;64.16;100388.73;463761;112;921538;-72
2021/08/09 01:25:05;;;;;;;;;;;;;;;24.59;64.26;100385.44;465814;112;921466;-71
2021/08/09 01:26:10;;;;;;;;;;;;;;;24.56;64.31;100388.84;464984;111;922691;-72
2021/08/09 01:27:15;;;;;;;;;;;;;;;24.53;64.43;100391.10;458490;114;921781;-72
2021/08/09 01:28:21;;;;;;;;;;;;;;;24.50;64.48;100388.95;454759;114;924160;-72
2021/08/09 01:29:27;;;;;;;;;;;;;;;24.47;64.53;100384.02;466476;111;921418;-71
2021/08/09 01:30:31;;;;;;;;;;;;;;;24.45;64.60;100386.28;466658;111;922722;-73
2021/08/09 01:31:37;;;;;;;;;;;;;;;24.43;64.72;100387.72;467187;112;921527;-72
2021/08/09 01:32:43;;;;;;;;;;;;;;;24.42;64.75;100389.67;466740;112;922438;-73
2021/08/09 01:33:48;;;;;;;;;;;;;;;24.40;64.73;100382.78;466216;111;922634;-69
2021/08/09 01:34:51;;;;;;;;;;;;;;;24.39;64.85;100383.91;466395;112;922626;-71
2021/08/09 01:35:56;;;;;;;;;;;;;;;24.38;64.93;100382.25;466468;112;921507;-72
2021/08/09 01:37:03;;;;;;;;;;;;;;;24.38;64.95;100382.25;464676;112;923559;-70
2021/08/09 01:38:08;;;;;;;;;;;;;;;24.38;64.93;100385.03;464394;111;924187;-70
2021/08/09 01:39:14;;;;;;;;;;;;;;;24.38;64.93;100383.08;465129;112;922678;-71
2021/08/09 01:40:21;;;;;;;;;;;;;;;24.39;64.90;100387.52;456016;115;922661;-70
2021/08/09 01:41:25;;;;;;;;;;;;;;;24.39;64.87;100381.95;454658;112;921648;-70
2021/08/09 01:42:29;;;;;;;;;;;;;;;24.39;64.85;100381.95;466777;113;922673;-72
2021/08/09 01:43:33;;;;;;;;;;;;;;;24.39;64.82;100381.95;466588;114;921510;-72
2021/08/09 01:44:38;;;;;;;;;;;;;;;24.40;64.77;100379.98;465898;112;921540;-72
2021/08/09 01:45:42;;;;;;;;;;;;;;;24.41;64.74;100378.86;465700;112;921479;-72
2021/08/09 01:46:46;;;;;;;;;;;;;;;24.40;64.68;100375.24;465804;111;921533;-72
2021/08/09 01:47:51;;;;;;;;;;;;;;;24.41;64.66;100382.47;467203;112;921688;-71
2021/08/09 01:48:55;;;;;;;;;;;;;;;24.41;64.66;100382.47;467066;112;922015;-72
2021/08/09 01:49:59;;;;;;;;;;;;;;;24.42;64.65;100380.52;466642;112;921463;-71
2021/08/09 01:51:02;;;;;;;;;;;;;;;24.41;64.64;100390.01;467187;111;922034;-71
2021/08/09 01:52:07;;;;;;;;;;;;;;;24.40;64.64;100383.61;466827;113;921493;-71
2021/08/09 01:53:11;;;;;;;;;;;;;;;24.40;64.65;100385.56;466808;114;921457;-72
2021/08/09 01:54:15;;;;;;;;;;;;;;;24.39;64.64;100386.69;463812;111;921600;-72
2021/08/09 01:55:18;;;;;;;;;;;;;;;24.37;64.67;100384.21;463857;111;921497;-72
2021/08/09 01:56:24;;;;;;;;;;;;;;;24.36;64.66;100378.97;463625;112;922034;-70
2021/08/09 01:57:27;;;;;;;;;;;;;;;24.36;64.61;100378.97;463837;112;921388;-71
2021/08/09 01:58:31;;;;;;;;;;;;;;;24.35;64.58;100383.72;454468;113;921496;-71
2021/08/09 01:59:34;;;;;;;;;;;;;;;24.35;64.62;100385.67;450255;116;921436;-71
2021/08/09 02:00:37;;;;;;;;;;;;;;;24.34;64.64;100382.06;452669;116;921763;-71
2021/08/09 02:01:42;;;;;;;;;;;;;;;24.34;64.62;100387.63;451038;118;921438;-71
2021/08/09 02:02:45;;;;;;;;;;;;;;;24.34;64.61;100384.02;458380;114;921507;-70
2021/08/09 02:03:49;;;;;;;;;;;;;;;24.33;64.62;100383.19;459760;113;921455;-71
2021/08/09 02:04:53;;;;;;;;;;;;;;;24.34;64.55;100384.02;459464;115;923513;-74
2021/08/09 02:05:57;;;;;;;;;;;;;;;24.35;64.53;100382.89;450890;116;922690;-72
2021/08/09 02:07:01;;;;;;;;;;;;;;;24.34;64.54;100381.23;451852;113;921525;-71
2021/08/09 02:08:06;;;;;;;;;;;;;;;24.33;64.51;100379.58;454267;116;921500;-70
2021/08/09 02:09:10;;;;;;;;;;;;;;;24.33;64.48;100377.62;454847;115;922703;-71
2021/08/09 02:10:18;;;;;;;;;;;;;;;24.33;64.48;100377.62;454103;116;922830;-70
2021/08/09 02:11:26;;;;;;;;;;;;;;;24.32;64.42;100373.17;454818;114;923173;-67
2021/08/09 02:12:30;;;;;;;;;;;;;;;24.31;64.35;100381.87;460520;113;924036;-70
2021/08/09 02:13:35;;;;;;;;;;;;;;;24.27;64.37;100376.07;461443;113;922633;-71
2021/08/09 02:14:40;;;;;;;;;;;;;;;24.27;64.44;100378.03;461583;113;921569;-71
2021/08/09 02:15:53;;;;;;;;;;;;;;;24.25;64.47;100381.15;462487;113;921731;-71
2021/08/09 02:16:58;;;;;;;;;;;;;;;24.24;64.56;100373.92;461635;114;922685;-68
2021/08/09 02:18:03;;;;;;;;;;;;;;;24.21;64.53;100380.09;458934;112;923463;-70
2021/08/09 02:19:21;;;;;;;;;;;;;;;24.18;64.58;100377.95;460954;113;922460;-70
2021/08/09 02:20:34;;;;;;;;;;;;;;;24.16;64.68;100369.03;460679;113;921885;-71
2021/08/09 02:21:42;;;;;;;;;;;;;;;24.14;64.79;100381.63;461710;114;922655;-71
2021/08/09 02:22:49;;;;;;;;;;;;;;;24.12;64.84;100370.79;461309;113;924084;-70
2021/08/09 02:24:05;;;;;;;;;;;;;;;24.11;64.90;100375.53;460298;113;923094;-69
2021/08/09 02:25:11;;;;;;;;;;;;;;;24.10;64.94;100376.66;460774;113;922783;-70
2021/08/09 02:26:16;;;;;;;;;;;;;;;24.09;65.04;100386.15;460492;113;923181;-72
2021/08/09 02:27:21;;;;;;;;;;;;;;;24.07;65.03;100376.47;461635;114;921438;-70
2021/08/09 02:28:28;;;;;;;;;;;;;;;24.06;65.06;100378.42;461640;114;923795;-70
2021/08/09 02:29:32;;;;;;;;;;;;;;;24.04;65.12;100377.07;462159;112;922664;-71
2021/08/09 02:30:38;;;;;;;;;;;;;;;24.02;65.15;100385.76;461933;114;922129;-70
2021/08/09 02:31:43;;;;;;;;;;;;;;;24.02;65.22;100382.14;462955;112;922746;-69
2021/08/09 02:32:48;;;;;;;;;;;;;;;24.00;65.25;100384.40;463098;114;923224;-71
2021/08/09 02:33:54;;;;;;;;;;;;;;;23.97;65.35;100379.46;462859;114;922674;-71
2021/08/09 02:34:59;;;;;;;;;;;;;;;23.96;65.43;100380.59;462834;115;921533;-70
2021/08/09 02:36:04;;;;;;;;;;;;;;;23.94;65.53;100378.11;459885;113;924168;-70
2021/08/09 02:37:08;;;;;;;;;;;;;;;23.93;65.56;100384.80;460919;114;922573;-71
2021/08/09 02:38:14;;;;;;;;;;;;;;;23.92;65.61;100380.39;458380;114;921518;-70
2021/08/09 02:39:18;;;;;;;;;;;;;;;23.91;65.68;100378.73;460447;113;921664;-71
2021/08/09 02:40:22;;;;;;;;;;;;;;;23.91;65.76;100386.27;460274;114;922668;-72
2021/08/09 02:41:26;;;;;;;;;;;;;;;23.89;65.85;100383.77;460765;114;921481;-70
2021/08/09 02:42:30;;;;;;;;;;;;;;;23.88;65.92;100384.08;459282;114;921422;-70
2021/08/09 02:43:34;;;;;;;;;;;;;;;23.88;65.98;100384.08;461377;113;921471;-71
2021/08/09 02:44:39;;;;;;;;;;;;;;;23.85;66.02;100385.53;464370;114;921501;-70
2021/08/09 02:45:43;;;;;;;;;;;;;;;23.83;66.03;100385.00;465100;112;921860;-71
2021/08/09 02:46:46;;;;;;;;;;;;;;;23.80;66.11;100388.41;461162;114;921408;-71
2021/08/09 02:47:50;;;;;;;;;;;;;;;23.77;66.29;100388.19;462031;112;921443;-71
2021/08/09 02:48:54;;;;;;;;;;;;;;;23.75;66.35;100379.33;461575;114;921480;-70
2021/08/09 02:49:58;;;;;;;;;;;;;;;23.73;66.50;100382.41;445456;118;921523;-71
2021/08/09 02:51:02;;;;;;;;;;;;;;;23.72;66.63;100388.28;448488;117;921771;-71
2021/08/09 02:52:07;;;;;;;;;;;;;;;23.72;66.73;100391.89;450643;117;921506;-71
2021/08/09 02:53:10;;;;;;;;;;;;;;;23.74;66.74;100384.08;446781;118;921541;-71
2021/08/09 02:54:15;;;;;;;;;;;;;;;23.75;66.76;100385.73;448567;118;921457;-71
2021/08/09 02:55:20;;;;;;;;;;;;;;;23.76;66.74;100378.20;453199;117;921554;-70
2021/08/09 02:56:24;;;;;;;;;;;;;;;23.77;66.77;100383.45;449182;116;921480;-70
2021/08/09 02:57:28;;;;;;;;;;;;;;;23.78;66.76;100385.10;447573;118;921513;-71
2021/08/09 02:58:33;;;;;;;;;;;;;;;23.78;66.72;100384.27;447273;117;923117;-71
2021/08/09 02:59:36;;;;;;;;;;;;;;;23.77;66.78;100383.45;449342;117;922670;-70
2021/08/09 03:00:42;;;;;;;;;;;;;;;23.79;66.76;100383.14;442812;117;921569;-69
2021/08/09 03:01:46;;;;;;;;;;;;;;;23.77;66.81;100377.88;448773;117;923129;-71
2021/08/09 03:02:51;;;;;;;;;;;;;;;23.77;66.81;100385.40;444983;117;924065;-70
2021/08/09 03:03:58;;;;;;;;;;;;;;;23.78;66.88;100387.05;444267;117;922801;-71
2021/08/09 03:05:02;;;;;;;;;;;;;;;23.79;66.82;100385.93;445655;118;922607;-69
2021/08/09 03:06:06;;;;;;;;;;;;;;;23.78;66.84;100382.32;446336;116;923391;-72
2021/08/09 03:07:11;;;;;;;;;;;;;;;23.78;66.85;100379.53;437509;118;921484;-71
2021/08/09 03:08:15;;;;;;;;;;;;;;;23.77;66.83;100389.02;439088;118;921615;-70
2021/08/09 03:09:18;;;;;;;;;;;;;;;23.75;66.83;100382.95;446408;118;921764;-72
2021/08/09 03:10:22;;;;;;;;;;;;;;;23.74;66.91;100378.50;445946;116;921712;-71
2021/08/09 03:11:25;;;;;;;;;;;;;;;23.74;66.88;100383.25;446447;116;922575;-70
2021/08/09 03:12:29;;;;;;;;;;;;;;;23.72;66.91;100389.11;450037;116;922640;-71
2021/08/09 03:13:34;;;;;;;;;;;;;;;23.72;66.91;100385.50;449350;117;921484;-71
2021/08/09 03:14:37;;;;;;;;;;;;;;;23.71;66.86;100390.23;450540;116;922697;-71
2021/08/09 03:15:42;;;;;;;;;;;;;;;23.71;66.87;100400.58;450154;117;922714;-70
2021/08/09 03:16:46;;;;;;;;;;;;;;;23.68;66.91;100400.05;454987;116;921554;-71
2021/08/09 03:17:49;;;;;;;;;;;;;;;23.68;67.02;100396.44;455736;117;922707;-70
2021/08/09 03:18:53;;;;;;;;;;;;;;;23.67;66.97;100403.95;452475;115;922736;-71
2021/08/09 03:19:57;;;;;;;;;;;;;;;23.67;67.01;100401.17;452224;115;923089;-69
2021/08/09 03:21:01;;;;;;;;;;;;;;;23.67;67.09;100398.39;452043;115;922658;-71
2021/08/09 03:22:05;;;;;;;;;;;;;;;23.69;67.04;100396.14;451535;117;922861;-71
2021/08/09 03:23:09;;;;;;;;;;;;;;;23.71;66.84;100400.58;450580;117;921431;-72
2021/08/09 03:24:13;;;;;;;;;;;;;;;23.73;66.65;100401.08;450932;115;924060;-71
2021/08/09 03:25:16;;;;;;;;;;;;;;;23.74;66.51;100397.16;452123;115;922529;-71
2021/08/09 03:26:20;;;;;;;;;;;;;;;23.75;66.44;100390.47;453437;113;922666;-71
2021/08/09 03:27:24;;;;;;;;;;;;;;;23.77;66.40;100390.97;451765;115;923193;-71
2021/08/09 03:28:28;;;;;;;;;;;;;;;23.79;66.31;100391.50;453580;115;922696;-70
2021/08/09 03:29:32;;;;;;;;;;;;;;;23.81;66.20;100395.64;453291;115;924856;-71
2021/08/09 03:30:36;;;;;;;;;;;;;;;23.84;66.11;100400.58;454105;115;922769;-71
2021/08/09 03:31:40;;;;;;;;;;;;;;;23.86;66.01;100389.14;453936;117;922692;-71
2021/08/09 03:32:44;;;;;;;;;;;;;;;23.87;65.89;100394.39;454308;116;921801;-71
2021/08/09 03:33:47;;;;;;;;;;;;;;;23.90;65.78;100398.53;454449;115;921520;-71
2021/08/09 03:34:50;;;;;;;;;;;;;;;23.91;65.69;100394.61;453706;115;921428;-71
2021/08/09 03:35:54;;;;;;;;;;;;;;;23.90;65.64;100391.00;454379;115;921485;-72
2021/08/09 03:36:58;;;;;;;;;;;;;;;23.90;65.64;100385.43;454790;115;923136;-72
2021/08/09 03:38:02;;;;;;;;;;;;;;;23.90;65.63;100384.61;454781;116;921431;-71
2021/08/09 03:39:05;;;;;;;;;;;;;;;23.91;65.62;100389.87;455006;115;921997;-70
2021/08/09 03:40:09;;;;;;;;;;;;;;;23.92;65.58;100388.75;450452;116;921567;-71
2021/08/09 03:41:12;;;;;;;;;;;;;;;23.92;65.58;100388.75;461630;113;921587;-72
2021/08/09 03:42:19;;;;;;;;;;;;;;;23.92;65.55;100394.31;458749;115;921532;-72
2021/08/09 03:43:21;;;;;;;;;;;;;;;23.92;65.54;100399.06;458355;113;921467;-72
2021/08/09 03:44:25;;;;;;;;;;;;;;;23.91;65.59;100397.41;461052;113;921358;-70
2021/08/09 03:45:28;;;;;;;;;;;;;;;23.90;65.56;100388.22;460785;113;921494;-70
2021/08/09 03:46:32;;;;;;;;;;;;;;;23.90;65.63;100387.39;458423;112;921475;-71
2021/08/09 03:47:35;;;;;;;;;;;;;;;23.91;65.66;100389.05;459907;113;921545;-71
2021/08/09 03:48:38;;;;;;;;;;;;;;;23.91;65.73;100391.83;460228;113;921681;-72
2021/08/09 03:49:41;;;;;;;;;;;;;;;23.92;65.79;100388.75;460092;114;921441;-71
2021/08/09 03:50:45;;;;;;;;;;;;;;;23.96;65.83;100394.52;460133;113;921487;-71
2021/08/09 03:51:48;;;;;;;;;;;;;;;23.97;65.80;100397.00;460598;113;921620;-71
2021/08/09 03:52:52;;;;;;;;;;;;;;;23.98;65.77;100397.83;461218;113;921395;-71
2021/08/09 03:53:56;;;;;;;;;;;;;;;23.99;65.76;100400.28;459982;114;921536;-71
2021/08/09 03:55:00;;;;;;;;;;;;;;;24.00;65.72;100401.94;459913;113;921567;-71
2021/08/09 03:56:03;;;;;;;;;;;;;;;24.01;65.66;100397.20;461102;113;921524;-69
2021/08/09 03:57:06;;;;;;;;;;;;;;;24.03;65.69;100403.30;461443;113;921528;-71
2021/08/09 03:58:10;;;;;;;;;;;;;;;24.04;65.75;100404.92;461506;114;921407;-70
2021/08/09 03:59:13;;;;;;;;;;;;;;;24.06;65.72;100411.85;460977;113;922756;-69
2021/08/09 04:00:16;;;;;;;;;;;;;;;24.08;65.74;100403.20;461662;113;922644;-70
2021/08/09 04:01:21;;;;;;;;;;;;;;;24.11;65.66;100408.97;462160;112;923113;-70
2021/08/09 04:02:30;;;;;;;;;;;;;;;24.15;65.59;100405.58;461455;113;922684;-71
2021/08/09 04:03:33;;;;;;;;;;;;;;;24.17;65.54;100406.90;462770;113;923041;-71
2021/08/09 04:04:37;;;;;;;;;;;;;;;24.19;65.49;100396.31;459229;114;922781;-71
2021/08/09 04:05:41;;;;;;;;;;;;;;;24.23;65.44;100396.52;458742;113;922623;-71
2021/08/09 04:06:45;;;;;;;;;;;;;;;24.25;65.34;100400.66;458531;113;922700;-70
2021/08/09 04:07:50;;;;;;;;;;;;;;;24.28;65.29;100397.23;457899;114;924001;-71
2021/08/09 04:08:54;;;;;;;;;;;;;;;24.30;65.14;100394.97;459393;113;921969;-71
2021/08/09 04:09:58;;;;;;;;;;;;;;;24.33;65.10;100399.08;459919;113;923457;-69
2021/08/09 04:11:02;;;;;;;;;;;;;;;24.35;65.05;100403.22;461362;115;922705;-71
2021/08/09 04:12:06;;;;;;;;;;;;;;;24.38;64.97;100401.76;461707;113;923091;-68
2021/08/09 04:13:10;;;;;;;;;;;;;;;24.40;64.92;100407.86;460125;113;922637;-71
2021/08/09 04:14:13;;;;;;;;;;;;;;;24.42;64.85;100405.59;460988;113;922686;-71
2021/08/09 04:15:17;;;;;;;;;;;;;;;24.44;64.81;100408.88;460260;115;922705;-68
2021/08/09 04:16:21;;;;;;;;;;;;;;;24.46;64.77;100398.25;461178;113;922706;-71
2021/08/09 04:17:25;;;;;;;;;;;;;;;24.47;64.71;100406.31;461404;112;921477;-69
2021/08/09 04:18:29;;;;;;;;;;;;;;;24.49;64.63;100401.23;461610;114;922622;-70
2021/08/09 04:19:33;;;;;;;;;;;;;;;24.51;64.64;100406.51;462587;112;922990;-70
2021/08/09 04:20:37;;;;;;;;;;;;;;;24.54;64.61;100405.87;463038;114;922655;-71
2021/08/09 04:21:41;;;;;;;;;;;;;;;24.56;64.55;100400.82;462678;113;922994;-70
2021/08/09 04:22:45;;;;;;;;;;;;;;;24.58;64.48;100401.34;462010;113;922663;-72
2021/08/09 04:23:50;;;;;;;;;;;;;;;24.61;64.43;100402.66;462095;112;922698;-70
2021/08/09 04:24:54;;;;;;;;;;;;;;;24.62;64.35;100404.32;460535;113;923732;-71
2021/08/09 04:25:57;;;;;;;;;;;;;;;24.63;64.30;100406.80;462102;112;922690;-70
2021/08/09 04:27:01;;;;;;;;;;;;;;;24.65;64.29;100403.69;459170;112;923014;-70
2021/08/09 04:28:05;;;;;;;;;;;;;;;24.67;64.28;100396.67;458748;114;922640;-70
2021/08/09 04:29:09;;;;;;;;;;;;;;;24.69;64.20;100407.52;453856;116;923117;-70
2021/08/09 04:30:13;;;;;;;;;;;;;;;24.69;64.18;100402.77;453027;114;925538;-72
2021/08/09 04:31:18;;;;;;;;;;;;;;;24.69;64.10;100407.52;459854;112;922738;-70
2021/08/09 04:32:22;;;;;;;;;;;;;;;24.68;64.16;100400.28;462689;113;922621;-71
2021/08/09 04:33:26;;;;;;;;;;;;;;;24.69;64.17;100401.94;462489;112;923430;-70
2021/08/09 04:34:31;;;;;;;;;;;;;;;24.68;64.17;100405.86;462116;112;921502;-71
2021/08/09 04:35:35;;;;;;;;;;;;;;;24.68;64.24;100397.50;461531;113;921449;-70
2021/08/09 04:36:39;;;;;;;;;;;;;;;24.69;64.27;100401.94;462209;112;921520;-70
2021/08/09 04:37:43;;;;;;;;;;;;;;;24.69;64.28;100401.94;462018;112;921697;-71
2021/08/09 04:38:46;;;;;;;;;;;;;;;24.70;64.23;100398.81;461386;112;921701;-71
2021/08/09 04:39:50;;;;;;;;;;;;;;;24.72;64.20;100404.91;462299;114;921355;-71
2021/08/09 04:40:54;;;;;;;;;;;;;;;24.74;64.14;100405.44;462561;113;924982;-69
2021/08/09 04:41:58;;;;;;;;;;;;;;;24.76;64.13;100408.72;462713;113;921597;-71
2021/08/09 04:43:03;;;;;;;;;;;;;;;24.78;64.15;100406.45;462300;114;921389;-71
2021/08/09 04:44:07;;;;;;;;;;;;;;;24.81;64.12;100416.97;462529;113;921423;-71
2021/08/09 04:45:10;;;;;;;;;;;;;;;24.85;64.12;100411.61;461878;114;921481;-72
2021/08/09 04:46:14;;;;;;;;;;;;;;;24.88;64.07;100409.04;461661;114;921406;-70
2021/08/09 04:47:18;;;;;;;;;;;;;;;24.92;64.03;100412.02;459740;113;921443;-69
2021/08/09 04:48:22;;;;;;;;;;;;;;;24.95;63.89;100411.41;456441;116;922647;-70
2021/08/09 04:49:25;;;;;;;;;;;;;;;24.98;63.84;100413.55;457585;114;922507;-70
2021/08/09 04:50:29;;;;;;;;;;;;;;;25.00;63.69;100416.86;460916;114;923957;-71
2021/08/09 04:51:33;;;;;;;;;;;;;;;25.03;63.63;100421.00;460930;114;923155;-69
2021/08/09 04:52:40;;;;;;;;;;;;;;;25.06;63.56;100420.36;460283;113;922562;-70
2021/08/09 04:53:45;;;;;;;;;;;;;;;25.07;63.48;100420.05;461214;114;921649;-71
2021/08/09 04:54:49;;;;;;;;;;;;;;;25.10;63.45;100418.58;460868;113;922856;-71
2021/08/09 04:55:52;;;;;;;;;;;;;;;25.12;63.50;100419.09;455915;115;923167;-73
2021/08/09 04:56:56;;;;;;;;;;;;;;;25.14;63.41;100417.63;456992;114;922219;-72
2021/08/09 04:58:00;;;;;;;;;;;;;;;25.17;63.33;100417.02;462158;114;921590;-71
2021/08/09 04:59:05;;;;;;;;;;;;;;;25.20;63.27;100418.33;461202;114;922594;-71
2021/08/09 05:00:09;;;;;;;;;;;;;;;25.23;63.14;100414.92;461321;113;921513;-71
2021/08/09 05:01:14;;;;;;;;;;;;;;;25.24;63.03;100414.62;462410;112;922704;-71
2021/08/09 05:02:18;;;;;;;;;;;;;;;25.26;63.02;100417.89;462106;114;922658;-71
2021/08/09 05:03:22;;;;;;;;;;;;;;;25.27;63.04;100413.97;462353;114;922608;-70
2021/08/09 05:04:25;;;;;;;;;;;;;;;25.30;62.96;100413.35;463102;113;922733;-70
2021/08/09 05:05:29;;;;;;;;;;;;;;;25.32;62.88;100411.05;461950;114;922675;-71
2021/08/09 05:06:33;;;;;;;;;;;;;;;25.34;62.84;100411.56;463049;112;922527;-71
2021/08/09 05:07:37;;;;;;;;;;;;;;;25.37;62.87;100412.05;457087;114;922806;-70
2021/08/09 05:08:42;;;;;;;;;;;;;;;25.39;62.76;100413.41;459482;114;923577;-71
2021/08/09 05:09:46;;;;;;;;;;;;;;;25.39;62.70;100410.61;460818;112;922684;-71
2021/08/09 05:10:50;;;;;;;;;;;;;;;25.42;62.71;100403.55;462187;114;922662;-71
2021/08/09 05:11:54;;;;;;;;;;;;;;;25.44;62.74;100415.23;459733;114;922666;-70
2021/08/09 05:12:57;;;;;;;;;;;;;;;25.44;62.76;100406.86;461508;113;923136;-72
2021/08/09 05:14:01;;;;;;;;;;;;;;;25.45;62.81;100406.55;463182;112;922620;-72
2021/08/09 05:15:07;;;;;;;;;;;;;;;25.47;62.81;100406.24;460696;112;922707;-72
2021/08/09 05:16:11;;;;;;;;;;;;;;;25.49;62.86;100409.52;460667;113;922536;-71
2021/08/09 05:17:15;;;;;;;;;;;;;;;25.49;62.80;100406.73;461223;114;923085;-72
2021/08/09 05:18:18;;;;;;;;;;;;;;;25.51;62.74;100404.45;461270;113;923569;-71
2021/08/09 05:19:22;;;;;;;;;;;;;;;25.51;62.76;100405.28;459503;113;922597;-71
2021/08/09 05:20:26;;;;;;;;;;;;;;;25.51;62.80;100405.28;460296;113;923138;-70
2021/08/09 05:21:30;;;;;;;;;;;;;;;25.52;62.84;100403.31;460756;115;923634;-71
2021/08/09 05:22:34;;;;;;;;;;;;;;;25.52;62.91;100401.35;459783;114;922678;-70
2021/08/09 05:23:38;;;;;;;;;;;;;;;25.51;62.99;100401.66;460937;114;921589;-72
2021/08/09 05:24:41;;;;;;;;;;;;;;;25.52;62.88;100401.35;462275;114;921434;-71
2021/08/09 05:25:45;;;;;;;;;;;;;;;25.53;62.75;100399.36;462348;115;921438;-71
2021/08/09 05:26:48;;;;;;;;;;;;;;;25.54;62.71;100398.22;461218;114;921397;-72
2021/08/09 05:27:51;;;;;;;;;;;;;;;25.53;62.73;100393.77;458550;113;921464;-71